createdAt,value
2019-03-16T00:00:21.190Z,10.00
2019-03-16T00:02:51.230Z,10.00
2019-03-16T00:05:23.068Z,10.10
2019-03-16T00:07:53.164Z,10.10
2019-03-16T00:10:24.474Z,10.00
2019-03-16T00:12:54.703Z,10.00
2019-03-16T00:15:24.785Z,10.00
2019-03-16T00:17:54.925Z,10.00
2019-03-16T00:20:25.130Z,10.00
2019-03-16T00:22:55.160Z,9.90
2019-03-16T00:25:25.433Z,9.90
2019-03-16T00:27:57.933Z,9.80
2019-03-16T00:30:28.106Z,9.80
2019-03-16T00:32:59.466Z,9.80
2019-03-16T00:35:29.532Z,9.70
2019-03-16T00:38:00.149Z,9.80
2019-03-16T00:40:32.502Z,9.80
2019-03-16T00:43:03.839Z,9.80
2019-03-16T00:45:35.135Z,9.80
2019-03-16T00:48:05.848Z,9.70
2019-03-16T00:50:38.242Z,9.70
2019-03-16T00:53:08.406Z,9.70
2019-03-16T00:55:43.188Z,9.70
2019-03-16T00:58:13.216Z,9.80
2019-03-16T01:00:46.101Z,9.70
2019-03-16T01:03:17.932Z,9.70
2019-03-16T01:05:48.045Z,9.80
2019-03-16T01:08:18.271Z,9.80
2019-03-16T01:10:48.435Z,9.90
2019-03-16T01:13:22.024Z,9.80
2019-03-16T01:15:52.193Z,9.90
2019-03-16T01:18:24.126Z,9.90
2019-03-16T01:20:56.198Z,9.80
2019-03-16T01:23:28.020Z,9.90
2019-03-16T01:25:58.204Z,9.80
2019-03-16T01:28:28.581Z,9.90
2019-03-16T01:30:58.673Z,9.90
2019-03-16T01:33:28.754Z,9.90
2019-03-16T01:35:58.906Z,9.80
2019-03-16T01:38:28.987Z,9.80
2019-03-16T01:40:59.040Z,9.80
2019-03-16T01:43:34.193Z,9.80
2019-03-16T01:46:04.319Z,9.80
2019-03-16T01:48:34.868Z,9.80
2019-03-16T01:51:04.935Z,9.80
2019-03-16T01:53:35.047Z,9.80
2019-03-16T01:56:12.417Z,9.80
2019-03-16T01:58:42.503Z,9.80
2019-03-16T02:01:13.286Z,9.80
2019-03-16T02:03:44.060Z,9.80
2019-03-16T02:06:14.137Z,9.80
2019-03-16T02:08:44.559Z,9.90
2019-03-16T02:11:14.729Z,9.90
2019-03-16T02:13:44.769Z,9.90
2019-03-16T02:16:14.855Z,9.90
2019-03-16T02:18:44.976Z,9.90
2019-03-16T02:21:15.047Z,9.90
2019-03-16T02:23:46.116Z,9.90
2019-03-16T02:26:16.183Z,9.90
2019-03-16T02:28:46.264Z,9.90
2019-03-16T02:31:17.400Z,9.90
2019-03-16T02:33:49.088Z,9.90
2019-03-16T02:36:19.986Z,9.90
2019-03-16T02:38:50.148Z,9.90
2019-03-16T02:41:22.260Z,9.90
2019-03-16T02:43:52.431Z,9.90
2019-03-16T02:46:22.535Z,9.90
2019-03-16T02:48:52.582Z,9.90
2019-03-16T02:51:22.668Z,9.90
2019-03-16T02:53:52.767Z,9.90
2019-03-16T02:56:22.794Z,9.90
2019-03-16T02:58:55.179Z,9.90
2019-03-16T03:01:25.293Z,9.90
2019-03-16T03:03:56.359Z,9.90
2019-03-16T03:06:27.188Z,10.00
2019-03-16T03:08:58.488Z,9.90
2019-03-16T03:11:28.869Z,9.90
2019-03-16T03:13:58.911Z,9.80
2019-03-16T03:16:29.051Z,9.90
2019-03-16T03:18:59.180Z,9.90
2019-03-16T03:21:29.273Z,9.90
2019-03-16T03:23:59.345Z,9.90
2019-03-16T03:26:29.460Z,9.90
2019-03-16T03:28:59.614Z,9.80
2019-03-16T03:31:29.819Z,9.90
2019-03-16T03:34:02.513Z,9.90
2019-03-16T03:36:31.634Z,9.80
2019-03-16T03:39:01.792Z,9.80
2019-03-16T03:41:31.895Z,9.80
2019-03-16T03:44:02.009Z,9.80
2019-03-16T03:46:32.717Z,9.70
2019-03-16T03:49:02.913Z,9.70
2019-03-16T03:51:32.960Z,9.70
2019-03-16T03:54:08.713Z,9.70
2019-03-16T03:56:38.733Z,9.60
2019-03-16T03:59:08.923Z,9.60
2019-03-16T04:01:39.494Z,9.60
2019-03-16T04:04:15.779Z,9.70
2019-03-16T04:06:44.697Z,9.70
2019-03-16T04:09:15.632Z,9.70
2019-03-16T04:11:45.720Z,9.70
2019-03-16T04:14:34.871Z,9.60
2019-03-16T04:17:04.964Z,9.50
2019-03-16T04:19:36.323Z,9.50
2019-03-16T04:22:06.595Z,9.60
2019-03-16T04:24:36.684Z,9.50
2019-03-16T04:27:15.787Z,9.50
2019-03-16T04:29:38.488Z,9.50
2019-03-16T04:32:08.580Z,9.50
2019-03-16T04:34:38.672Z,9.50
2019-03-16T04:37:08.782Z,9.50
2019-03-16T04:39:39.217Z,9.40
2019-03-16T04:42:09.289Z,9.50
2019-03-16T04:44:39.332Z,9.50
2019-03-16T04:47:10.340Z,9.50
2019-03-16T04:49:41.589Z,9.50
2019-03-16T04:52:11.692Z,9.40
2019-03-16T04:54:41.782Z,9.30
2019-03-16T04:57:11.826Z,9.30
2019-03-16T04:59:41.897Z,9.40
2019-03-16T05:02:12.788Z,9.30
2019-03-16T05:04:43.016Z,9.30
2019-03-16T05:07:13.113Z,9.30
2019-03-16T05:09:43.181Z,9.30
2019-03-16T05:12:14.507Z,9.40
2019-03-16T05:14:44.601Z,9.40
2019-03-16T05:17:16.282Z,9.40
2019-03-16T05:19:46.308Z,9.40
2019-03-16T05:22:16.399Z,9.40
2019-03-16T05:24:46.475Z,9.30
2019-03-16T05:27:16.577Z,9.40
2019-03-16T05:29:46.659Z,9.40
2019-03-16T05:32:20.496Z,9.40
2019-03-16T05:34:56.455Z,9.30
2019-03-16T05:37:23.771Z,9.40
2019-03-16T05:39:53.842Z,9.40
2019-03-16T05:42:23.932Z,9.40
2019-03-16T05:44:54.023Z,9.40
2019-03-16T05:47:27.404Z,9.40
2019-03-16T05:49:59.567Z,9.50
2019-03-16T05:52:29.615Z,9.50
2019-03-16T05:54:59.855Z,9.50
2019-03-16T05:57:30.131Z,9.50
2019-03-16T06:00:00.661Z,9.50
2019-03-16T06:02:31.029Z,9.60
2019-03-16T06:05:10.683Z,9.60
2019-03-16T06:07:33.027Z,9.60
2019-03-16T06:10:05.714Z,9.60
2019-03-16T06:12:37.655Z,9.60
2019-03-16T06:15:07.891Z,9.70
2019-03-16T06:17:38.401Z,9.70
2019-03-16T06:20:09.347Z,9.70
2019-03-16T06:22:45.614Z,9.60
2019-03-16T06:25:16.155Z,9.70
2019-03-16T06:27:46.944Z,9.70
2019-03-16T06:30:20.704Z,9.70
2019-03-16T06:32:50.584Z,9.70
2019-03-16T06:35:24.898Z,9.70
2019-03-16T06:37:52.770Z,9.80
2019-03-16T06:40:23.272Z,9.80
2019-03-16T06:42:53.319Z,9.70
2019-03-16T06:45:23.542Z,9.80
2019-03-16T06:47:54.903Z,9.80
2019-03-16T06:50:25.331Z,9.80
2019-03-16T06:52:56.504Z,9.80
2019-03-16T06:55:28.087Z,9.90
2019-03-16T06:57:58.180Z,9.90
2019-03-16T07:00:28.563Z,9.90
2019-03-16T07:02:58.991Z,9.80
2019-03-16T07:05:38.193Z,9.80
2019-03-16T07:08:03.919Z,9.80
2019-03-16T07:10:36.230Z,9.90
2019-03-16T07:13:06.545Z,9.90
2019-03-16T07:15:37.008Z,10.00
2019-03-16T07:18:07.450Z,10.00
2019-03-16T07:20:37.807Z,10.10
2019-03-16T07:23:08.124Z,10.00
2019-03-16T07:25:38.513Z,10.00
2019-03-16T07:28:08.561Z,10.10
2019-03-16T07:30:38.654Z,10.10
2019-03-16T07:33:08.940Z,10.10
2019-03-16T07:35:39.057Z,10.10
2019-03-16T07:38:09.136Z,10.00
2019-03-16T07:40:39.204Z,10.10
2019-03-16T07:43:09.273Z,10.00
2019-03-16T07:45:39.349Z,9.80
2019-03-16T07:48:09.659Z,9.70
2019-03-16T07:50:39.719Z,9.70
2019-03-16T07:53:09.889Z,9.70
2019-03-16T07:55:42.306Z,9.70
2019-03-16T07:58:12.097Z,9.60
2019-03-16T08:00:42.186Z,9.70
2019-03-16T08:03:12.417Z,9.70
2019-03-16T08:05:42.498Z,9.80
2019-03-16T08:08:14.387Z,9.90
2019-03-16T08:10:44.529Z,9.90
2019-03-16T08:13:14.755Z,9.90
2019-03-16T08:15:47.221Z,10.00
2019-03-16T08:18:19.355Z,10.00
2019-03-16T08:20:49.452Z,9.90
2019-03-16T08:23:21.072Z,10.00
2019-03-16T08:25:52.292Z,9.90
2019-03-16T08:28:22.421Z,9.90
2019-03-16T08:30:52.607Z,10.00
2019-03-16T08:33:22.739Z,10.00
2019-03-16T08:36:04.253Z,10.10
2019-03-16T08:38:35.533Z,10.00
2019-03-16T08:41:07.568Z,10.00
2019-03-16T08:43:37.846Z,10.00
2019-03-16T08:46:09.566Z,10.00
2019-03-16T08:48:40.050Z,10.10
2019-03-16T08:51:10.457Z,10.10
2019-03-16T08:53:41.065Z,10.00
2019-03-16T08:56:11.365Z,10.00
2019-03-16T08:58:41.887Z,10.00
2019-03-16T09:01:13.751Z,10.10
2019-03-16T09:03:44.170Z,10.20
2019-03-16T09:06:14.482Z,10.10
2019-03-16T09:08:46.697Z,10.10
2019-03-16T09:11:16.751Z,10.10
2019-03-16T09:13:48.943Z,10.20
2019-03-16T09:16:19.007Z,10.10
2019-03-16T09:18:49.101Z,9.90
2019-03-16T09:21:23.183Z,9.80
2019-03-16T09:23:55.540Z,9.80
2019-03-16T09:26:26.265Z,9.90
2019-03-16T09:29:00.234Z,9.90
2019-03-16T09:31:30.730Z,9.90
2019-03-16T09:34:02.894Z,9.80
2019-03-16T09:36:32.743Z,9.70
2019-03-16T09:39:03.716Z,9.70
2019-03-16T09:41:34.254Z,9.70
2019-03-16T09:44:06.847Z,9.70
2019-03-16T09:46:38.295Z,9.70
2019-03-16T09:49:09.592Z,9.80
2019-03-16T09:51:39.674Z,9.90
2019-03-16T09:54:12.980Z,9.90
2019-03-16T09:56:43.051Z,10.10
2019-03-16T09:59:13.093Z,10.10
2019-03-16T10:01:43.463Z,9.90
2019-03-16T10:04:15.438Z,10.00
2019-03-16T10:06:45.920Z,10.00
2019-03-16T10:09:16.065Z,9.90
2019-03-16T10:11:46.286Z,10.00
2019-03-16T10:14:16.343Z,10.30
2019-03-16T10:16:47.868Z,10.50
2019-03-16T10:19:19.866Z,10.50
2019-03-16T10:21:50.199Z,10.50
2019-03-16T10:24:20.652Z,10.90
2019-03-16T10:26:50.775Z,11.10
2019-03-16T10:29:23.286Z,11.20
2019-03-16T10:31:53.637Z,11.30
2019-03-16T10:34:25.549Z,11.50
2019-03-16T10:36:55.659Z,11.60
2019-03-16T10:39:29.594Z,11.60
2019-03-16T10:42:00.795Z,12.00
2019-03-16T10:44:39.211Z,12.10
2019-03-16T10:47:09.285Z,12.50
2019-03-16T10:49:39.378Z,11.90
2019-03-16T10:52:10.077Z,11.90
2019-03-16T10:54:42.045Z,11.90
2019-03-16T10:57:12.789Z,12.10
2019-03-16T10:59:43.152Z,12.20
2019-03-16T11:02:13.878Z,12.50
2019-03-16T11:04:43.940Z,12.40
2019-03-16T11:07:17.310Z,12.30
2019-03-16T11:09:47.797Z,12.30
2019-03-16T11:12:17.894Z,12.00
2019-03-16T11:14:48.159Z,11.80
2019-03-16T11:17:19.533Z,11.80
2019-03-16T11:19:51.124Z,11.70
2019-03-16T11:22:21.407Z,11.50
2019-03-16T11:24:51.504Z,11.40
2019-03-16T11:27:22.448Z,11.40
2019-03-16T11:29:52.556Z,11.40
2019-03-16T11:32:25.459Z,11.70
2019-03-16T11:34:58.132Z,11.60
2019-03-16T11:37:28.543Z,11.40
2019-03-16T11:39:58.661Z,11.40
2019-03-16T11:42:28.818Z,11.50
2019-03-16T11:45:00.465Z,11.70
2019-03-16T11:47:30.964Z,11.70
2019-03-16T11:50:01.420Z,11.80
2019-03-16T11:52:31.700Z,11.60
2019-03-16T11:55:02.137Z,12.00
2019-03-16T11:57:33.576Z,12.10
2019-03-16T12:00:04.119Z,12.10
2019-03-16T12:02:35.806Z,12.10
2019-03-16T12:05:07.485Z,12.50
2019-03-16T12:07:41.672Z,12.70
2019-03-16T12:10:11.990Z,12.80
2019-03-16T12:12:44.375Z,12.40
2019-03-16T12:15:16.847Z,12.70
2019-03-16T12:17:47.197Z,12.70
2019-03-16T12:20:19.552Z,12.40
2019-03-16T12:22:50.970Z,12.30
2019-03-16T12:25:23.434Z,12.30
2019-03-16T12:27:53.576Z,12.10
2019-03-16T12:30:24.186Z,12.00
2019-03-16T12:32:54.273Z,12.10
2019-03-16T12:35:24.336Z,12.60
2019-03-16T12:37:54.752Z,13.00
2019-03-16T12:40:25.386Z,13.30
2019-03-16T12:42:57.467Z,13.20
2019-03-16T12:45:27.876Z,13.00
2019-03-16T12:48:00.469Z,12.60
2019-03-16T12:50:30.822Z,12.30
2019-03-16T12:53:01.174Z,12.60
2019-03-16T12:55:31.552Z,12.70
2019-03-16T12:58:01.901Z,12.90
2019-03-16T13:00:32.249Z,12.70
2019-03-16T13:03:02.669Z,12.40
2019-03-16T13:05:32.989Z,12.10
2019-03-16T13:08:05.795Z,11.90
2019-03-16T13:10:36.549Z,12.00
2019-03-16T13:13:06.814Z,12.00
2019-03-16T13:15:37.624Z,12.20
2019-03-16T13:18:09.420Z,12.20
2019-03-16T13:20:40.245Z,12.10
2019-03-16T13:23:10.552Z,12.10
2019-03-16T13:25:41.145Z,12.00
2019-03-16T13:28:11.345Z,12.10
2019-03-16T13:30:41.704Z,12.20
2019-03-16T13:33:12.152Z,12.40
2019-03-16T13:35:42.309Z,12.70
2019-03-16T13:38:12.588Z,12.70
2019-03-16T13:40:43.562Z,12.60
2019-03-16T13:43:13.872Z,12.90
2019-03-16T13:45:46.751Z,13.40
2019-03-16T13:48:19.360Z,13.60
2019-03-16T13:50:49.598Z,13.90
2019-03-16T13:53:19.822Z,14.20
2019-03-16T13:55:50.360Z,14.30
2019-03-16T13:58:23.232Z,14.40
2019-03-16T14:00:53.707Z,14.70
2019-03-16T14:03:26.949Z,14.90
2019-03-16T14:05:57.707Z,15.50
2019-03-16T14:08:30.183Z,16.10
2019-03-16T14:11:00.521Z,15.70
2019-03-16T14:13:31.161Z,16.00
2019-03-16T14:16:05.817Z,15.50
2019-03-16T14:18:45.330Z,14.90
2019-03-16T14:21:15.698Z,15.10
2019-03-16T14:23:45.929Z,15.50
2019-03-16T14:26:16.217Z,16.40
2019-03-16T14:28:48.058Z,16.20
2019-03-16T14:31:19.697Z,16.20
2019-03-16T14:33:55.443Z,15.60
2019-03-16T14:36:31.132Z,14.30
2019-03-16T14:39:01.971Z,14.10
2019-03-16T14:41:32.627Z,13.80
2019-03-16T14:44:07.412Z,13.60
2019-03-16T14:46:37.953Z,14.20
2019-03-16T14:49:09.073Z,14.80
2019-03-16T14:51:42.069Z,14.90
2019-03-16T14:54:12.648Z,14.90
2019-03-16T14:56:52.233Z,14.50
2019-03-16T14:59:24.084Z,14.40
2019-03-16T15:01:57.395Z,14.60
2019-03-16T15:04:29.692Z,13.80
2019-03-16T15:07:02.305Z,13.80
2019-03-16T15:09:41.965Z,14.00
2019-03-16T15:12:12.505Z,13.90
2019-03-16T15:14:45.943Z,13.90
2019-03-16T15:17:25.296Z,13.50
2019-03-16T15:19:54.109Z,13.20
2019-03-16T15:22:24.244Z,13.00
2019-03-16T15:24:56.548Z,12.90
2019-03-16T15:27:31.336Z,13.00
2019-03-16T15:30:03.557Z,12.80
2019-03-16T15:32:33.996Z,12.80
2019-03-16T15:35:07.213Z,12.70
2019-03-16T15:37:40.616Z,12.90
2019-03-16T15:40:13.455Z,12.90
2019-03-16T15:42:45.555Z,13.20
2019-03-16T15:47:58.504Z,13.80
2019-03-16T15:50:31.503Z,13.40
2019-03-16T15:53:01.769Z,13.40
2019-03-16T15:58:09.255Z,12.90
2019-03-16T16:03:17.939Z,12.70
2019-03-16T16:05:50.872Z,12.70
2019-03-16T16:08:40.365Z,12.70
2019-03-16T16:11:14.072Z,12.70
2019-03-16T16:13:45.172Z,12.70
2019-03-16T16:16:17.940Z,12.60
2019-03-16T16:18:50.537Z,12.60
2019-03-16T16:21:21.968Z,12.60
2019-03-16T16:24:00.290Z,12.60
2019-03-16T16:26:33.640Z,12.70
2019-03-16T16:29:05.429Z,12.70
2019-03-16T16:31:35.539Z,12.70
2019-03-16T16:34:05.599Z,12.70
2019-03-16T16:36:37.584Z,12.70
2019-03-16T16:39:08.185Z,12.70
2019-03-16T16:41:38.634Z,12.60
2019-03-16T16:44:08.884Z,12.70
2019-03-16T16:46:40.891Z,12.70
2019-03-16T16:49:11.009Z,12.60
2019-03-16T16:51:43.726Z,12.60
2019-03-16T16:54:15.261Z,12.60
2019-03-16T16:56:46.472Z,12.60
2019-03-16T16:59:16.599Z,12.60
2019-03-16T17:01:46.873Z,12.50
2019-03-16T17:04:17.003Z,12.50
2019-03-16T17:06:47.091Z,12.30
2019-03-16T17:09:17.243Z,12.30
2019-03-16T17:11:47.559Z,12.30
2019-03-16T17:14:17.837Z,12.20
2019-03-16T17:16:48.165Z,12.10
2019-03-16T17:19:18.357Z,12.10
2019-03-16T17:21:48.628Z,12.00
2019-03-16T17:24:21.966Z,11.90
2019-03-16T17:26:52.256Z,11.90
2019-03-16T17:29:22.696Z,11.90
2019-03-16T17:31:53.923Z,11.80
2019-03-16T17:34:24.384Z,11.80
2019-03-16T17:36:54.620Z,11.80
2019-03-16T17:39:27.956Z,11.80
2019-03-16T17:41:58.776Z,11.70
2019-03-16T17:44:30.212Z,11.60
2019-03-16T17:47:00.728Z,11.60
2019-03-16T17:49:31.181Z,11.70
2019-03-16T17:52:01.576Z,11.70
2019-03-16T17:54:36.893Z,11.70
2019-03-16T17:57:07.460Z,11.70
2019-03-16T17:59:41.682Z,11.70
2019-03-16T18:02:14.176Z,11.60
2019-03-16T18:04:45.615Z,11.60
2019-03-16T18:07:17.740Z,11.60
2019-03-16T18:09:47.916Z,11.60
2019-03-16T18:12:18.293Z,11.60
2019-03-16T18:15:11.947Z,11.60
2019-03-16T18:17:44.218Z,11.70
2019-03-16T18:20:17.339Z,11.60
2019-03-16T18:22:47.193Z,11.60
2019-03-16T18:25:17.473Z,11.60
2019-03-16T18:27:47.607Z,11.60
2019-03-16T18:30:19.983Z,11.60
2019-03-16T18:32:51.520Z,11.50
2019-03-16T18:35:21.634Z,11.50
2019-03-16T18:37:56.611Z,11.50
2019-03-16T18:40:30.711Z,11.50
2019-03-16T18:43:02.985Z,11.40
2019-03-16T18:45:33.104Z,11.40
2019-03-16T18:48:04.237Z,11.30
2019-03-16T18:50:34.393Z,11.20
2019-03-16T18:53:04.867Z,11.10
2019-03-16T18:55:39.917Z,11.00
2019-03-16T18:58:10.053Z,10.90
2019-03-16T19:00:40.208Z,10.90
2019-03-16T19:03:11.744Z,10.80
2019-03-16T19:05:42.526Z,10.80
2019-03-16T19:08:12.649Z,10.70
2019-03-16T19:10:42.857Z,10.70
2019-03-16T19:13:15.444Z,10.70
2019-03-16T19:15:45.551Z,10.50
2019-03-16T19:18:15.677Z,10.50
2019-03-16T19:20:46.913Z,10.50
2019-03-16T19:23:17.652Z,10.40
2019-03-16T19:25:48.098Z,10.30
2019-03-16T19:28:18.629Z,10.30
2019-03-16T19:30:49.326Z,10.20
2019-03-16T19:33:20.073Z,10.20
2019-03-16T19:35:50.193Z,10.20
2019-03-16T19:38:20.258Z,10.00
2019-03-16T19:40:50.376Z,9.90
2019-03-16T19:43:20.452Z,9.80
2019-03-16T19:45:50.666Z,9.70
2019-03-16T19:48:20.775Z,9.60
2019-03-16T19:50:50.911Z,9.50
2019-03-16T19:53:22.053Z,9.30
2019-03-16T19:55:53.419Z,9.20
2019-03-16T19:58:23.528Z,9.20
2019-03-16T20:00:53.608Z,9.50
2019-03-16T20:03:52.516Z,9.50
2019-03-16T20:06:34.885Z,9.40
2019-03-16T20:09:09.114Z,9.40
2019-03-16T20:11:40.051Z,9.70
2019-03-16T20:14:10.312Z,9.80
2019-03-16T20:17:00.516Z,10.00
2019-03-16T20:19:39.571Z,10.20
2019-03-16T20:22:40.345Z,10.50
2019-03-16T20:25:38.214Z,10.50
2019-03-16T20:28:43.321Z,10.50
2019-03-16T20:31:29.079Z,10.50
2019-03-16T20:34:16.280Z,10.30
2019-03-16T20:37:19.653Z,10.10
2019-03-16T20:39:51.598Z,10.00
2019-03-16T20:42:23.152Z,9.90
2019-03-16T20:44:54.421Z,9.90
2019-03-16T20:47:27.537Z,9.80
2019-03-16T20:50:00.356Z,9.70
2019-03-16T20:52:30.609Z,9.70
2019-03-16T20:55:00.763Z,9.60
2019-03-16T20:57:31.158Z,9.70
2019-03-16T21:00:01.323Z,9.60
2019-03-16T21:02:40.409Z,9.50
2019-03-16T21:05:11.338Z,9.30
2019-03-16T21:07:41.986Z,9.20
2019-03-16T21:10:12.680Z,9.10
2019-03-16T21:12:43.106Z,9.00
2019-03-16T21:15:58.341Z,8.90
2019-03-16T21:19:14.841Z,8.90
2019-03-16T21:21:54.391Z,8.80
2019-03-16T21:25:05.490Z,8.80
2019-03-16T21:27:55.992Z,9.00
2019-03-16T21:30:40.876Z,9.10
2019-03-16T21:33:34.842Z,9.20
2019-03-16T21:36:40.858Z,9.40
2019-03-16T21:39:32.755Z,9.40
2019-03-16T21:42:15.913Z,9.50
2019-03-16T21:44:55.362Z,9.50
2019-03-16T21:47:28.311Z,9.50
2019-03-16T21:50:20.694Z,9.50
2019-03-16T21:52:52.841Z,9.60
2019-03-16T21:55:22.957Z,9.70
2019-03-16T21:57:54.865Z,9.50
2019-03-16T22:00:25.008Z,9.60
2019-03-16T22:02:55.148Z,9.60
2019-03-16T22:05:25.837Z,9.60
2019-03-16T22:07:56.016Z,9.50
2019-03-16T22:10:26.942Z,9.50
2019-03-16T22:12:57.182Z,9.60
2019-03-16T22:15:27.406Z,9.60
2019-03-16T22:17:57.513Z,9.60
2019-03-16T22:20:27.774Z,9.70
2019-03-16T22:22:58.732Z,9.80
2019-03-16T22:25:28.840Z,9.70
2019-03-16T22:27:58.939Z,9.70
2019-03-16T22:30:31.573Z,9.70
2019-03-16T22:33:01.995Z,9.70
2019-03-16T22:35:32.273Z,9.60
2019-03-16T22:38:02.382Z,9.60
2019-03-16T22:40:32.987Z,9.40
2019-03-16T22:43:04.181Z,9.30
2019-03-16T22:45:36.099Z,9.30
2019-03-16T22:48:06.473Z,9.30
2019-03-16T22:50:36.584Z,9.20
2019-03-16T22:53:08.936Z,9.30
2019-03-16T22:55:39.182Z,9.40
2019-03-16T22:58:09.805Z,9.50
2019-03-16T23:00:48.569Z,9.50
2019-03-16T23:03:18.998Z,9.90
2019-03-16T23:05:55.088Z,10.20
2019-03-16T23:08:37.545Z,10.50
2019-03-16T23:11:10.051Z,10.50
2019-03-16T23:13:42.174Z,10.50
2019-03-16T23:16:12.716Z,10.60
2019-03-16T23:18:42.869Z,10.70
2019-03-16T23:21:15.167Z,10.70
2019-03-16T23:23:47.047Z,10.80
2019-03-16T23:26:17.432Z,10.70
2019-03-16T23:28:47.877Z,10.80
2019-03-16T23:31:18.227Z,10.80
2019-03-16T23:33:48.481Z,10.70
2019-03-16T23:36:18.616Z,10.90
2019-03-16T23:38:53.692Z,10.80
2019-03-16T23:41:24.259Z,10.70
2019-03-16T23:43:55.976Z,10.60
2019-03-16T23:46:28.298Z,10.60
2019-03-16T23:49:01.265Z,10.50
2019-03-16T23:51:30.925Z,10.60
2019-03-16T23:54:02.832Z,10.70
2019-03-16T23:56:33.232Z,10.80
2019-03-16T23:59:04.049Z,10.80
